Pampa, TX

4:21 AM CDT on May 26, 2017 (GMT -0500)
Perry Lefors

Weather History for KPPA - August, 2014

Change the Weather History Date:

Saturday, August 2, 2014

  Actual Average Record
Temperature  
Mean Temperature 74 °F -  
Max Temperature 87 °F 91 °F 105 °F (1966)
Min Temperature 60 °F 65 °F 58 °F (1965)
Cooling Degree Days 8    
Growing Degree Days 24 (Base 50)    
Moisture  
Dew Point 50 °F    
Average Humidity 47    
Maximum Humidity 82    
Minimum Humidity 21    
Precipitation  
Precipitation 0.00 in - - ()
Sea Level Pressure  
Sea Level Pressure 30.21 in    
Wind  
Wind Speed 7 mph (NE)    
Max Wind Speed 13 mph    
Max Gust Speed 18 mph    
Visibility 10 miles    
Events      
Averages and records for this station are not official NWS values.
T = Trace of Precipitation, MM = Missing Value Source: NWS Daily Summary

Daily Weather History Graph

Daily Weather History Graph

Search for Another Location

Airport or City:

Trip Planner

Search our weather history database for the weather conditions in past years. The results will help you decide how hot, cold, wet, or windy it might be!

Date:

Astronomy

Aug. 02, 2014 Rise Set
Actual Time 6:52 AM CDT 8:47 PM CDT
Civil Twilight 6:24 AM CDT 9:14 PM CDT
Nautical Twilight 5:51 AM CDT 9:48 PM CDT
Astronomical Twilight 5:14 AM CDT 10:24 PM CDT
Moon 1:01 PM CDT (8/2) No Moon Set
Length of Visible Light 14h 49m
Length of Day
13h 54m
Waxing Crescent, 37% of the Moon is Illuminated
Aug 2
Waxing Crescent
Aug 3
First Quarter
Aug 10
Full
Aug 17
Last Quarter
Aug 25
New

Hourly Weather History & Observations

Time (CDT) Temp. Dew Point Humidity Pressure Visibility Wind Dir Wind Speed Gust Speed Precip Events Conditions
12:35 AM 65.8 °F 57.6 °F 75% 30.21 in 10.0 mi SW 8.1 mph - N/A   Clear
1:15 AM 65.7 °F 56.8 °F 73% 30.21 in 10.0 mi SW 8.1 mph - N/A   Clear
1:35 AM 65.5 °F 56.5 °F 73% 30.20 in 10.0 mi SW 5.8 mph - N/A   Clear
1:55 AM 65.5 °F 56.5 °F 73% 30.19 in 10.0 mi WSW 3.5 mph - N/A   Clear
2:15 AM 65.7 °F 56.3 °F 72% 30.19 in 10.0 mi SW 4.6 mph - N/A   Clear
2:55 AM 64.6 °F 55.6 °F 73% 30.19 in 10.0 mi West 6.9 mph - N/A   Clear
3:35 AM 62.6 °F 55.6 °F 78% 30.19 in 10.0 mi WNW 6.9 mph - N/A   Clear
4:15 AM 61.3 °F 55.9 °F 82% 30.19 in 10.0 mi WNW 8.1 mph - N/A   Clear
4:35 AM 62.6 °F 55.8 °F 78% 30.19 in 10.0 mi West 9.2 mph - N/A   Clear
5:15 AM 60.8 °F 54.7 °F 80% 30.19 in 10.0 mi West 8.1 mph - N/A   Clear
5:35 AM 61.0 °F 54.5 °F 79% 30.19 in 10.0 mi West 8.1 mph - N/A   Clear
5:55 AM 60.8 °F 54.3 °F 79% 30.20 in 10.0 mi West 8.1 mph - N/A   Clear
6:15 AM 60.3 °F 54.0 °F 80% 30.21 in 10.0 mi West 8.1 mph - N/A   Clear
6:35 AM 60.3 °F 54.0 °F 80% 30.22 in 10.0 mi West 6.9 mph - N/A   Clear
6:55 AM 60.4 °F 54.0 °F 79% 30.23 in 10.0 mi WNW 6.9 mph - N/A   Clear
7:15 AM 60.6 °F 54.0 °F 79% 30.23 in 10.0 mi WNW 5.8 mph - N/A   Clear
7:35 AM 60.8 °F 54.3 °F 79% 30.23 in 10.0 mi West 8.1 mph - N/A   Clear
7:55 AM 62.1 °F 54.9 °F 77% 30.24 in 10.0 mi WNW 6.9 mph - N/A   Clear
8:15 AM 64.4 °F 54.9 °F 71% 30.24 in 10.0 mi NW 4.6 mph - N/A   Clear
8:35 AM 64.4 °F 55.4 °F 73% 30.24 in 10.0 mi WNW 3.5 mph - N/A   Clear
8:55 AM 67.5 °F 54.3 °F 63% 30.25 in 10.0 mi WNW 4.6 mph - N/A   Clear
9:15 AM 70.7 °F 54.1 °F 56% 30.25 in 10.0 mi NW 5.8 mph - N/A   Clear
9:35 AM 73.2 °F 54.0 °F 51% 30.25 in 10.0 mi WNW 4.6 mph - N/A   Clear
9:55 AM 75.6 °F 50.9 °F 42% 30.25 in 10.0 mi NNW 9.2 mph - N/A   Clear
10:15 AM 77.5 °F 49.1 °F 37% 30.24 in 10.0 mi North 8.1 mph - N/A   Clear
10:35 AM 79.7 °F 48.2 °F 33% 30.24 in 10.0 mi North 10.4 mph - N/A   Clear
10:55 AM 80.6 °F 46.8 °F 30% 30.24 in 10.0 mi North 8.1 mph - N/A   Clear
11:15 AM 81.1 °F 48.2 °F 32% 30.24 in 10.0 mi NNW 9.2 mph - N/A   Clear
11:35 AM 81.9 °F 46.2 °F 29% 30.25 in 10.0 mi NNE 8.1 mph - N/A   Clear
12:15 PM 82.8 °F 46.2 °F 28% 30.24 in 10.0 mi NE 10.4 mph - N/A   Clear
12:35 PM 84.2 °F 45.1 °F 25% 30.24 in 10.0 mi ENE 6.9 mph - N/A   Clear
12:55 PM 83.8 °F 44.8 °F 25% 30.24 in 10.0 mi ENE 5.8 mph - N/A   Clear
1:15 PM 85.8 °F 45.7 °F 25% 30.23 in 10.0 mi East 9.2 mph - N/A   Scattered Clouds
1:35 PM 85.3 °F 46.4 °F 26% 30.23 in 10.0 mi NE 10.4 mph 16.1 mph N/A   Scattered Clouds
1:55 PM 84.6 °F 46.4 °F 26% 30.23 in 10.0 mi ENE 10.4 mph 16.1 mph N/A   Clear
2:15 PM 85.5 °F 46.2 °F 25% 30.22 in 10.0 mi ENE 10.4 mph - N/A   Scattered Clouds
2:35 PM 86.4 °F 46.2 °F 25% 30.22 in 10.0 mi Calm Calm - N/A   Scattered Clouds
2:55 PM 86.9 °F 46.4 °F 24% 30.21 in 10.0 mi North 6.9 mph - N/A   Clear
3:15 PM 86.0 °F 47.1 °F 26% 30.21 in 10.0 mi NE 6.9 mph 16.1 mph N/A   Clear
3:35 PM 86.4 °F 47.5 °F 26% 30.20 in 10.0 mi ENE 5.8 mph - N/A   Clear
3:55 PM 86.9 °F 45.3 °F 23% 30.20 in 10.0 mi East 10.4 mph - N/A   Clear
4:15 PM 86.2 °F 45.9 °F 24% 30.19 in 10.0 mi East 10.4 mph 18.4 mph N/A   Clear
4:35 PM 86.9 °F 43.7 °F 22% 30.19 in 10.0 mi NNE 6.9 mph - N/A   Clear
4:55 PM 86.9 °F 44.8 °F 23% 30.19 in 10.0 mi East 10.4 mph - N/A   Clear
5:15 PM 87.4 °F 42.8 °F 21% 30.19 in 10.0 mi East 9.2 mph 17.3 mph N/A   Clear
5:35 PM 86.5 °F 46.0 °F 24% 30.19 in 10.0 mi ENE 4.6 mph - N/A   Clear
5:55 PM 86.9 °F 45.3 °F 23% 30.18 in 10.0 mi East 10.4 mph - N/A   Clear
6:15 PM 86.2 °F 46.2 °F 25% 30.18 in 10.0 mi ENE 12.7 mph - N/A   Clear
6:35 PM 85.6 °F 44.8 °F 24% 30.18 in 10.0 mi East 6.9 mph - N/A   Clear
6:55 PM 84.9 °F 44.8 °F 24% 30.17 in 10.0 mi East 9.2 mph - N/A   Clear
7:15 PM 84.2 °F 44.8 °F 25% 30.17 in 10.0 mi East 8.1 mph - N/A   Clear
7:35 PM 83.5 °F 45.1 °F 26% 30.17 in 10.0 mi East 8.1 mph - N/A   Clear
7:55 PM 81.9 °F 43.7 °F 26% 30.17 in 10.0 mi East 9.2 mph - N/A   Clear
8:15 PM 79.5 °F 43.3 °F 28% 30.18 in 10.0 mi East 8.1 mph - N/A   Clear
8:35 PM 75.7 °F 44.8 °F 33% 30.18 in 10.0 mi East 6.9 mph - N/A   Clear
8:55 PM 72.0 °F 46.6 °F 40% 30.18 in 10.0 mi East 6.9 mph - N/A   Clear
9:15 PM 71.8 °F 47.5 °F 42% 30.19 in 10.0 mi ESE 6.9 mph - N/A   Clear
9:35 PM 70.9 °F 48.7 °F 45% 30.19 in 10.0 mi ESE 5.8 mph - N/A   Clear
9:55 PM 72.0 °F 47.8 °F 42% 30.20 in 10.0 mi ESE 5.8 mph - N/A   Clear
10:15 PM 69.8 °F 48.9 °F 47% 30.21 in 10.0 mi ESE 6.9 mph - N/A   Clear
10:35 PM 70.7 °F 48.9 °F 46% 30.21 in 10.0 mi ESE 6.9 mph - N/A   Clear
10:55 PM 69.3 °F 50.0 °F 50% 30.21 in 10.0 mi ESE 5.8 mph - N/A   Clear
11:15 PM 69.8 °F 49.6 °F 49% 30.22 in 10.0 mi ESE 6.9 mph - N/A   Clear
11:35 PM 68.5 °F 50.0 °F 52% 30.22 in 10.0 mi SE 4.6 mph - N/A   Clear
11:55 PM 67.3 °F 49.8 °F 53% 30.22 in 10.0 mi SE 4.6 mph - N/A   Clear